Time;durP1;ratioP1;P1;durP2;ratioP2;P2;SDS_P1;SDS_P2;PMS_P1;PMS_P2;Temp;Humidity;BMP_temperature;BMP_pressure;BME280_temperature;BME280_humidity;BME280_pressure;Samples;Min_cycle;Max_cycle;Signal;HPM_P1;HPM_P2
2022/06/27 00:00:07;;;;;;;;;;;21.90;69.10;;;;;;5056598;28;1340;-69
2022/06/27 00:02:32;;;;;;;;;;;21.80;69.00;;;;;;5056380;28;1923;-69
2022/06/27 00:04:58;;;;;;;;;;;21.90;69.00;;;;;;5056285;28;1496;-69
2022/06/27 00:07:23;;;;;;;;;;;21.90;69.10;;;;;;5056349;28;1340;-69
2022/06/27 00:09:49;;;;;;;;;;;21.90;69.10;;;;;;5056131;28;1127;-69
2022/06/27 00:12:14;;;;;;;;;;;21.80;69.00;;;;;;5056383;28;1270;-69
2022/06/27 00:14:39;;;;;;;;;;;21.90;69.10;;;;;;5056224;28;1286;-69
2022/06/27 00:17:05;;;;;;;;;;;21.80;69.00;;;;;;5056608;28;1352;-69
2022/06/27 00:19:31;;;;;;;;;;;21.80;69.00;;;;;;5057123;28;1264;-69
2022/06/27 00:21:56;;;;;;;;;;;21.90;69.10;;;;;;5059996;28;1961;-69
2022/06/27 00:24:22;;;;;;;;;;;21.90;69.10;;;;;;5056282;28;1260;-69
2022/06/27 00:26:48;;;;;;;;;;;21.90;69.10;;;;;;5067670;28;1118;-69
2022/06/27 00:29:14;;;;;;;;;;;21.80;69.00;;;;;;5056173;28;1188;-68
2022/06/27 00:31:39;;;;;;;;;;;21.90;69.10;;;;;;5039950;28;1187;-69
2022/06/27 00:34:05;;;;;;;;;;;21.80;69.10;;;;;;5053934;28;1749;-68
2022/06/27 00:36:30;;;;;;;;;;;21.90;69.10;;;;;;5048075;28;1782;-69
2022/06/27 00:38:56;;;;;;;;;;;21.90;69.10;;;;;;5052321;28;1831;-69
2022/06/27 00:41:21;;;;;;;;;;;21.90;69.10;;;;;;5054941;28;1956;-70
2022/06/27 00:43:46;;;;;;;;;;;21.90;69.10;;;;;;5055478;28;1208;-69
2022/06/27 00:46:12;;;;;;;;;;;21.90;69.10;;;;;;5055351;28;1334;-68
2022/06/27 00:48:37;;;;;;;;;;;21.80;69.10;;;;;;5055435;28;1220;-68
2022/06/27 00:51:03;;;;;;;;;;;21.90;69.10;;;;;;5055120;28;1295;-68
2022/06/27 00:53:29;;;;;;;;;;;21.90;69.10;;;;;;5054958;28;1255;-70
2022/06/27 00:55:54;;;;;;;;;;;21.90;69.10;;;;;;5050222;28;1404;-70
2022/06/27 00:58:20;;;;;;;;;;;21.80;69.10;;;;;;5037748;28;1257;-70
2022/06/27 01:00:45;;;;;;;;;;;21.90;69.10;;;;;;5055844;28;1143;-69
2022/06/27 01:03:11;;;;;;;;;;;21.80;69.00;;;;;;5055419;28;1910;-69
2022/06/27 01:05:36;;;;;;;;;;;21.80;69.00;;;;;;5055172;28;1359;-69
2022/06/27 01:08:01;;;;;;;;;;;21.80;69.00;;;;;;5054026;28;1291;-70
2022/06/27 01:10:27;;;;;;;;;;;21.90;69.10;;;;;;5055462;28;1365;-70
2022/06/27 01:12:52;;;;;;;;;;;21.80;69.00;;;;;;5055406;28;1253;-69
2022/06/27 01:15:18;;;;;;;;;;;21.90;69.10;;;;;;5037189;28;1353;-69
2022/06/27 01:17:43;;;;;;;;;;;21.90;69.10;;;;;;5055329;28;1273;-69
2022/06/27 01:20:09;;;;;;;;;;;21.80;69.00;;;;;;5049803;28;1275;-70
2022/06/27 01:22:34;;;;;;;;;;;21.80;69.00;;;;;;5054876;28;1894;-70
2022/06/27 01:25:00;;;;;;;;;;;21.90;69.10;;;;;;5056679;28;1304;-69
2022/06/27 01:27:25;;;;;;;;;;;21.90;69.10;;;;;;5064804;28;1346;-69
2022/06/27 01:29:51;;;;;;;;;;;21.90;69.90;;;;;;5055022;28;1304;-69
2022/06/27 01:32:16;;;;;;;;;;;21.90;69.10;;;;;;5054950;28;1426;-69
2022/06/27 01:34:41;;;;;;;;;;;21.90;69.10;;;;;;5054593;28;1292;-69
2022/06/27 01:37:07;;;;;;;;;;;21.80;69.10;;;;;;5054692;28;1358;-69
2022/06/27 01:39:32;;;;;;;;;;;21.90;69.10;;;;;;5054725;28;1315;-69
2022/06/27 01:41:59;;;;;;;;;;;21.90;69.10;;;;;;5054740;28;1902;-69
2022/06/27 01:44:25;;;;;;;;;;;21.90;69.10;;;;;;5054334;28;1312;-69
2022/06/27 01:47:01;;;;;;;;;;;21.90;69.20;;;;;;5036882;28;1353;-69
2022/06/27 01:49:29;;;;;;;;;;;21.90;69.10;;;;;;5054601;28;1300;-68
2022/06/27 01:51:55;;;;;;;;;;;21.90;69.10;;;;;;5054449;28;1376;-69
2022/06/27 01:54:21;;;;;;;;;;;21.90;69.10;;;;;;5054181;28;1365;-67
2022/06/27 01:56:49;;;;;;;;;;;21.90;69.20;;;;;;5036950;28;1298;-67
2022/06/27 01:59:14;;;;;;;;;;;21.90;69.10;;;;;;5054702;28;1346;-68
2022/06/27 02:01:40;;;;;;;;;;;21.90;69.20;;;;;;5035188;28;2120;-69
2022/06/27 02:04:05;;;;;;;;;;;21.90;69.10;;;;;;5034973;28;1296;-69
2022/06/27 02:06:31;;;;;;;;;;;21.90;69.20;;;;;;5052964;28;1238;-69
2022/06/27 02:08:56;;;;;;;;;;;21.90;69.10;;;;;;5054435;28;1099;-69
2022/06/27 02:11:22;;;;;;;;;;;21.90;69.10;;;;;;5036401;28;1092;-69
2022/06/27 02:13:48;;;;;;;;;;;21.80;69.10;;;;;;5036205;28;1517;-69
2022/06/27 02:16:14;;;;;;;;;;;21.90;69.10;;;;;;5054043;28;1270;-70
2022/06/27 02:18:40;;;;;;;;;;;21.90;69.20;;;;;;5058280;28;1318;-70
2022/06/27 02:21:06;;;;;;;;;;;21.90;69.10;;;;;;5062567;28;1271;-70
2022/06/27 02:23:32;;;;;;;;;;;21.90;69.20;;;;;;5036114;28;1949;-70
2022/06/27 02:25:57;;;;;;;;;;;21.90;69.10;;;;;;5063571;28;1288;-69
2022/06/27 02:28:22;;;;;;;;;;;21.90;69.20;;;;;;5037276;28;1331;-69
2022/06/27 02:30:48;;;;;;;;;;;21.90;69.20;;;;;;5036190;28;1298;-69
2022/06/27 02:33:14;;;;;;;;;;;21.90;69.20;;;;;;5053509;28;1330;-69
2022/06/27 02:35:39;;;;;;;;;;;21.90;69.20;;;;;;5031125;28;1263;-69
2022/06/27 02:38:05;;;;;;;;;;;21.90;69.90;;;;;;5035606;28;1327;-69
2022/06/27 02:40:31;;;;;;;;;;;21.90;69.20;;;;;;5053995;28;1659;-68
2022/06/27 02:42:56;;;;;;;;;;;21.80;69.10;;;;;;5053436;28;1913;-68
2022/06/27 02:45:21;;;;;;;;;;;21.90;69.20;;;;;;5035581;28;1274;-68
2022/06/27 02:47:47;;;;;;;;;;;21.90;69.20;;;;;;5035678;28;1325;-68
2022/06/27 02:50:12;;;;;;;;;;;21.90;69.20;;;;;;5035575;28;1283;-68
2022/06/27 02:52:42;;;;;;;;;;;21.90;69.20;;;;;;5035789;28;1381;-68
2022/06/27 02:55:14;;;;;;;;;;;21.80;69.10;;;;;;5035749;28;1267;-68
2022/06/27 02:57:43;;;;;;;;;;;21.80;69.10;;;;;;5053564;28;1342;-69
2022/06/27 03:00:08;;;;;;;;;;;21.80;69.10;;;;;;5053900;28;1291;-69
2022/06/27 03:02:38;;;;;;;;;;;21.90;69.20;;;;;;5053211;28;1969;-68
2022/06/27 03:05:03;;;;;;;;;;;21.90;69.20;;;;;;5053009;28;1288;-68
2022/06/27 03:07:29;;;;;;;;;;;21.90;69.20;;;;;;5035139;28;1205;-68
2022/06/27 03:10:00;;;;;;;;;;;21.90;69.20;;;;;;5053223;28;1130;-68
2022/06/27 03:12:26;;;;;;;;;;;21.80;69.10;;;;;;5053212;28;1262;-68
2022/06/27 03:14:51;;;;;;;;;;;21.90;69.20;;;;;;5052929;28;1279;-68
2022/06/27 03:17:16;;;;;;;;;;;21.90;69.20;;;;;;5052949;28;1261;-68
2022/06/27 03:19:42;;;;;;;;;;;21.90;69.20;;;;;;5048233;28;1346;-68
2022/06/27 03:22:07;;;;;;;;;;;21.90;69.20;;;;;;5035432;28;1957;-68
2022/06/27 03:24:33;;;;;;;;;;;21.90;69.20;;;;;;5052742;28;1330;-70
2022/06/27 03:26:58;;;;;;;;;;;21.80;69.20;;;;;;5064919;28;1330;-70
2022/06/27 03:29:24;;;;;;;;;;;21.80;69.20;;;;;;5052422;28;1318;-69
2022/06/27 03:31:49;;;;;;;;;;;21.90;69.20;;;;;;5052644;28;1326;-69
2022/06/27 03:34:14;;;;;;;;;;;21.90;69.20;;;;;;5034698;28;1287;-69
2022/06/27 03:36:43;;;;;;;;;;;21.90;69.20;;;;;;5052892;28;1295;-69
2022/06/27 03:39:09;;;;;;;;;;;21.90;69.20;;;;;;5052738;28;1390;-69
2022/06/27 03:41:34;;;;;;;;;;;21.90;69.20;;;;;;5052703;28;1947;-68
2022/06/27 03:43:59;;;;;;;;;;;21.90;69.20;;;;;;5052651;28;1329;-69
2022/06/27 03:46:25;;;;;;;;;;;21.80;69.20;;;;;;5052616;28;1342;-69
2022/06/27 03:51:35;;;;;;;;;;;21.90;69.20;;;;;;5052803;28;1148;-69
2022/06/27 03:54:00;;;;;;;;;;;21.90;69.20;;;;;;5034703;28;1294;-69
2022/06/27 03:56:26;;;;;;;;;;;21.80;69.20;;;;;;5052548;28;1324;-70
2022/06/27 03:58:51;;;;;;;;;;;21.90;69.20;;;;;;5052470;28;1296;-69
2022/06/27 04:01:17;;;;;;;;;;;21.80;69.20;;;;;;5052579;28;1329;-69
2022/06/27 04:03:42;;;;;;;;;;;21.90;69.20;;;;;;5052348;28;1965;-69
2022/06/27 04:06:07;;;;;;;;;;;21.90;69.30;;;;;;5060732;28;1189;-69
2022/06/27 04:08:33;;;;;;;;;;;21.90;69.20;;;;;;5057630;28;1310;-70
2022/06/27 04:10:58;;;;;;;;;;;21.90;69.20;;;;;;5052664;28;1386;-70
2022/06/27 04:13:24;;;;;;;;;;;21.90;69.20;;;;;;5052285;28;1306;-70
2022/06/27 04:15:49;;;;;;;;;;;21.90;69.20;;;;;;5052473;28;1368;-70
2022/06/27 04:18:15;;;;;;;;;;;21.90;69.20;;;;;;5066948;28;1018;-70
2022/06/27 04:20:42;;;;;;;;;;;21.90;69.20;;;;;;5064499;28;1304;-70
2022/06/27 04:23:07;;;;;;;;;;;21.80;69.20;;;;;;5052235;28;1905;-70
2022/06/27 04:25:33;;;;;;;;;;;21.90;69.30;;;;;;5034360;28;1375;-70
2022/06/27 04:27:58;;;;;;;;;;;21.90;69.20;;;;;;5052115;28;1316;-70
2022/06/27 04:30:25;;;;;;;;;;;21.90;69.20;;;;;;5052312;28;1437;-70
2022/06/27 04:32:51;;;;;;;;;;;21.90;69.20;;;;;;5047342;28;1119;-70
2022/06/27 04:35:16;;;;;;;;;;;21.90;69.20;;;;;;5052051;28;1301;-68
2022/06/27 04:37:43;;;;;;;;;;;21.80;69.20;;;;;;5046021;28;1787;-68
2022/06/27 04:40:12;;;;;;;;;;;21.80;69.20;;;;;;5051156;28;1046;-68
2022/06/27 04:42:37;;;;;;;;;;;21.90;69.30;;;;;;5054384;28;1902;-67
2022/06/27 04:45:03;;;;;;;;;;;21.90;69.20;;;;;;5063131;28;1204;-67
2022/06/27 04:47:29;;;;;;;;;;;21.80;69.20;;;;;;5043869;28;1069;-68
2022/06/27 04:49:55;;;;;;;;;;;21.90;69.20;;;;;;5065887;28;1331;-68
2022/06/27 04:52:20;;;;;;;;;;;21.80;69.20;;;;;;5055320;28;1278;-69
2022/06/27 04:54:45;;;;;;;;;;;21.90;69.20;;;;;;5054576;28;1287;-69
2022/06/27 04:57:12;;;;;;;;;;;21.90;69.20;;;;;;5054779;28;1437;-70
2022/06/27 04:59:38;;;;;;;;;;;21.80;69.20;;;;;;5055027;28;1266;-71
2022/06/27 05:02:03;;;;;;;;;;;21.80;69.20;;;;;;5055509;28;1914;-71
2022/06/27 05:04:30;;;;;;;;;;;21.90;69.20;;;;;;5054698;28;1278;-71
2022/06/27 05:06:55;;;;;;;;;;;21.90;69.20;;;;;;5056923;28;1095;-69
2022/06/27 05:09:21;;;;;;;;;;;21.90;69.20;;;;;;5066116;28;730;-69
2022/06/27 05:11:47;;;;;;;;;;;21.90;69.20;;;;;;5054373;28;1278;-69
2022/06/27 05:14:12;;;;;;;;;;;21.90;69.20;;;;;;5062706;28;1220;-69
2022/06/27 05:16:38;;;;;;;;;;;21.90;69.20;;;;;;5059431;28;1290;-69
2022/06/27 05:19:04;;;;;;;;;;;21.90;69.30;;;;;;5062413;28;1269;-68
2022/06/27 05:21:29;;;;;;;;;;;21.90;69.30;;;;;;5072967;28;1878;-66
2022/06/27 05:23:55;;;;;;;;;;;21.90;69.20;;;;;;5044264;28;1326;-71
2022/06/27 05:26:20;;;;;;;;;;;21.90;69.30;;;;;;5071322;28;1351;-70
2022/06/27 05:28:46;;;;;;;;;;;21.90;69.30;;;;;;5054069;28;1314;-69
2022/06/27 05:31:11;;;;;;;;;;;21.90;69.30;;;;;;5037075;28;1285;-74
2022/06/27 05:33:37;;;;;;;;;;;21.90;69.30;;;;;;5054242;28;1029;-72
2022/06/27 05:36:05;;;;;;;;;;;21.90;69.30;;;;;;5055612;28;1298;-72
2022/06/27 05:38:31;;;;;;;;;;;21.90;69.30;;;;;;5047718;28;1401;-72
2022/06/27 05:40:57;;;;;;;;;;;21.80;69.20;;;;;;5054426;28;1686;-67
2022/06/27 05:43:23;;;;;;;;;;;21.80;69.20;;;;;;5053837;28;1965;-67
2022/06/27 05:45:48;;;;;;;;;;;21.90;69.30;;;;;;5049316;28;1195;-68
2022/06/27 05:48:14;;;;;;;;;;;21.90;69.30;;;;;;5054158;28;1280;-68
2022/06/27 05:50:40;;;;;;;;;;;21.90;69.30;;;;;;5053466;28;1310;-68
2022/06/27 05:53:06;;;;;;;;;;;21.90;69.30;;;;;;5052944;28;1344;-67
2022/06/27 05:55:32;;;;;;;;;;;21.80;69.20;;;;;;5052463;28;1298;-68
2022/06/27 05:57:58;;;;;;;;;;;21.90;69.30;;;;;;5036160;28;1284;-69
2022/06/27 06:00:24;;;;;;;;;;;21.90;69.30;;;;;;5035880;28;1248;-70
2022/06/27 06:02:50;;;;;;;;;;;21.90;69.30;;;;;;5035955;28;1910;-70
2022/06/27 06:05:17;;;;;;;;;;;21.90;69.40;;;;;;5055539;28;1350;-73
2022/06/27 06:07:43;;;;;;;;;;;21.90;69.30;;;;;;5064168;28;1193;-68
2022/06/27 06:10:08;;;;;;;;;;;21.90;69.30;;;;;;5035218;28;1340;-67
2022/06/27 06:12:34;;;;;;;;;;;21.90;69.30;;;;;;5026506;28;1773;-67
2022/06/27 06:15:03;;;;;;;;;;;21.90;69.30;;;;;;5052260;28;1294;-67
2022/06/27 06:17:31;;;;;;;;;;;21.90;69.30;;;;;;5053114;28;1465;-68
2022/06/27 06:19:56;;;;;;;;;;;21.80;69.20;;;;;;5047537;28;1267;-67
2022/06/27 06:22:22;;;;;;;;;;;21.90;69.30;;;;;;5057993;28;1894;-67
2022/06/27 06:24:49;;;;;;;;;;;21.90;69.30;;;;;;5051459;28;1330;-67
2022/06/27 06:27:15;;;;;;;;;;;21.80;69.30;;;;;;5062640;28;1319;-69
2022/06/27 06:29:41;;;;;;;;;;;21.90;69.30;;;;;;5052776;28;1337;-71
2022/06/27 06:32:07;;;;;;;;;;;21.90;69.30;;;;;;5053003;28;1282;-70
2022/06/27 06:34:33;;;;;;;;;;;21.90;69.20;;;;;;5052007;28;1342;-69
2022/06/27 06:36:58;;;;;;;;;;;21.90;69.30;;;;;;5052943;28;1193;-67
2022/06/27 06:39:23;;;;;;;;;;;21.90;69.30;;;;;;5052112;28;1398;-69
2022/06/27 06:41:50;;;;;;;;;;;21.90;69.30;;;;;;5033703;28;1917;-70
2022/06/27 06:44:17;;;;;;;;;;;21.90;69.30;;;;;;5033707;28;1381;-71
2022/06/27 06:46:43;;;;;;;;;;;21.90;69.30;;;;;;5034792;28;1270;-68
2022/06/27 06:49:10;;;;;;;;;;;21.90;69.30;;;;;;5052382;28;1129;-69
2022/06/27 06:51:39;;;;;;;;;;;21.90;69.30;;;;;;5034692;28;1131;-69
2022/06/27 06:54:04;;;;;;;;;;;21.90;69.30;;;;;;5033733;28;1314;-70
2022/06/27 06:56:30;;;;;;;;;;;21.90;69.30;;;;;;5076923;22;1746;-74
2022/06/27 06:58:58;;;;;;;;;;;21.80;69.20;;;;;;5090177;28;1603;-74
2022/06/27 07:01:24;;;;;;;;;;;21.90;69.30;;;;;;5071023;28;1257;-74
2022/06/27 07:03:50;;;;;;;;;;;21.90;69.30;;;;;;5070415;28;1914;-74
2022/06/27 07:06:17;;;;;;;;;;;21.90;69.30;;;;;;5075114;28;1145;-74
2022/06/27 07:08:45;;;;;;;;;;;21.90;69.30;;;;;;5056471;28;1342;-73
2022/06/27 07:11:10;;;;;;;;;;;21.90;69.30;;;;;;5055950;28;1354;-73
2022/06/27 07:13:37;;;;;;;;;;;21.90;69.30;;;;;;5055205;28;1406;-74
2022/06/27 07:16:05;;;;;;;;;;;21.90;69.30;;;;;;5055405;28;1299;-74
2022/06/27 07:18:31;;;;;;;;;;;21.90;69.40;;;;;;5035314;28;1360;-75
2022/06/27 07:20:57;;;;;;;;;;;21.90;69.30;;;;;;5064106;28;1173;-74
2022/06/27 07:23:22;;;;;;;;;;;21.90;69.30;;;;;;5038256;28;1902;-72
2022/06/27 07:25:48;;;;;;;;;;;21.90;69.30;;;;;;5064149;28;1476;-72
2022/06/27 07:28:16;;;;;;;;;;;21.90;69.30;;;;;;5075430;28;1370;-73
2022/06/27 07:30:42;;;;;;;;;;;21.90;69.30;;;;;;5073748;28;1407;-73
2022/06/27 07:33:08;;;;;;;;;;;21.90;69.30;;;;;;5072747;28;1345;-73
2022/06/27 07:35:33;;;;;;;;;;;21.90;69.30;;;;;;5072561;28;1331;-72
2022/06/27 07:38:00;;;;;;;;;;;21.90;69.30;;;;;;5072817;28;1567;-72
2022/06/27 07:40:25;;;;;;;;;;;21.90;69.30;;;;;;5072783;28;1673;-73
2022/06/27 07:42:51;;;;;;;;;;;21.90;69.30;;;;;;5054767;28;1965;-73
2022/06/27 07:45:18;;;;;;;;;;;21.90;69.30;;;;;;5055126;28;1263;-73
2022/06/27 07:47:44;;;;;;;;;;;21.90;69.30;;;;;;5072579;28;1361;-73
2022/06/27 07:50:10;;;;;;;;;;;21.90;69.30;;;;;;5054828;28;1290;-73
2022/06/27 07:55:20;;;;;;;;;;;21.90;69.30;;;;;;5057294;28;1293;-72
2022/06/27 07:57:47;;;;;;;;;;;21.90;69.30;;;;;;5072528;28;1305;-73
2022/06/27 08:00:13;;;;;;;;;;;21.90;69.40;;;;;;5072702;28;1146;-73
2022/06/27 08:02:38;;;;;;;;;;;21.90;69.30;;;;;;5051887;28;3216;-73
2022/06/27 08:05:05;;;;;;;;;;;21.90;69.30;;;;;;5069732;28;1716;-73
2022/06/27 08:07:31;;;;;;;;;;;21.90;69.30;;;;;;5068926;28;1706;-72
2022/06/27 08:09:56;;;;;;;;;;;21.90;69.30;;;;;;5066368;28;1695;-72
2022/06/27 08:12:22;;;;;;;;;;;21.90;69.30;;;;;;5072743;28;1239;-72
2022/06/27 08:14:49;;;;;;;;;;;21.90;69.30;;;;;;5059524;28;1474;-71
2022/06/27 08:17:14;;;;;;;;;;;21.90;69.30;;;;;;5057505;28;1633;-71
2022/06/27 08:19:40;;;;;;;;;;;21.90;70.10;;;;;;5063752;28;1616;-72
2022/06/27 08:22:06;;;;;;;;;;;21.90;69.30;;;;;;5076508;28;1947;-72
2022/06/27 08:24:31;;;;;;;;;;;21.90;69.30;;;;;;5058223;28;1688;-71
2022/06/27 08:26:59;;;;;;;;;;;21.90;69.20;;;;;;5064837;28;1475;-74
2022/06/27 08:29:27;;;;;;;;;;;21.90;69.30;;;;;;5075976;28;1652;-73
2022/06/27 08:31:52;;;;;;;;;;;21.90;69.20;;;;;;5050759;28;1638;-73
2022/06/27 08:34:20;;;;;;;;;;;21.90;69.20;;;;;;5044564;28;1479;-74
2022/06/27 08:36:45;;;;;;;;;;;21.90;69.20;;;;;;5041780;28;1348;-73
2022/06/27 08:39:13;;;;;;;;;;;21.90;69.20;;;;;;5075879;28;1672;-74
2022/06/27 08:41:39;;;;;;;;;;;21.90;69.20;;;;;;5076076;28;1963;-73
2022/06/27 08:44:06;;;;;;;;;;;21.90;69.30;;;;;;5044465;28;1410;-73
2022/06/27 08:46:32;;;;;;;;;;;21.90;69.20;;;;;;5075756;28;1416;-74
2022/06/27 08:48:57;;;;;;;;;;;21.90;69.20;;;;;;5050581;28;2165;-72
2022/06/27 08:51:23;;;;;;;;;;;21.90;69.30;;;;;;5052278;28;1710;-73
2022/06/27 08:53:52;;;;;;;;;;;21.90;69.30;;;;;;5057004;28;1123;-73
2022/06/27 08:56:19;;;;;;;;;;;21.90;69.30;;;;;;5048127;28;1086;-73
2022/06/27 08:58:46;;;;;;;;;;;21.90;69.30;;;;;;5048249;28;1427;-74
2022/06/27 09:01:13;;;;;;;;;;;21.90;69.30;;;;;;5042430;28;1121;-74
2022/06/27 09:03:38;;;;;;;;;;;21.90;69.20;;;;;;5057515;28;1997;-75
2022/06/27 09:06:05;;;;;;;;;;;21.90;69.30;;;;;;5065433;28;1234;-70
2022/06/27 09:08:32;;;;;;;;;;;21.90;69.30;;;;;;5065070;28;1401;-74
2022/06/27 09:10:58;;;;;;;;;;;21.90;69.20;;;;;;5075611;28;1086;-74
2022/06/27 09:13:25;;;;;;;;;;;21.90;69.20;;;;;;5047973;28;1132;-74
2022/06/27 09:15:58;;;;;;;;;;;21.90;69.30;;;;;;5068950;28;1099;-73
2022/06/27 09:18:24;;;;;;;;;;;21.90;69.20;;;;;;5038958;28;1312;-73
2022/06/27 09:20:50;;;;;;;;;;;21.90;69.20;;;;;;5057801;28;1083;-73
2022/06/27 09:23:25;;;;;;;;;;;21.90;69.20;;;;;;5043869;28;1953;-73
2022/06/27 09:26:00;;;;;;;;;;;21.90;69.20;;;;;;5059386;28;1077;-73
2022/06/27 09:28:37;;;;;;;;;;;21.90;69.20;;;;;;5054943;28;1451;-73
2022/06/27 09:31:03;;;;;;;;;;;21.90;69.20;;;;;;5057341;28;1094;-73
2022/06/27 09:33:31;;;;;;;;;;;21.90;69.30;;;;;;5036745;28;1271;-73
2022/06/27 09:35:56;;;;;;;;;;;21.90;69.20;;;;;;5060789;28;1252;-74
2022/06/27 09:38:22;;;;;;;;;;;21.90;69.20;;;;;;5048463;28;1334;-73
2022/06/27 09:40:48;;;;;;;;;;;21.90;69.20;;;;;;5032948;28;1287;-73
2022/06/27 09:43:16;;;;;;;;;;;21.90;69.20;;;;;;5047195;28;1902;-74
2022/06/27 09:45:42;;;;;;;;;;;21.90;69.20;;;;;;5050559;28;1081;-73
2022/06/27 09:48:08;;;;;;;;;;;21.90;69.30;;;;;;5050829;28;1305;-74
2022/06/27 09:50:35;;;;;;;;;;;21.90;69.20;;;;;;5065683;28;1242;-73
2022/06/27 09:53:00;;;;;;;;;;;21.90;69.20;;;;;;5046344;28;1113;-74
2022/06/27 09:55:26;;;;;;;;;;;21.90;69.30;;;;;;5068757;28;1233;-73
2022/06/27 09:57:52;;;;;;;;;;;21.90;69.20;;;;;;5051988;28;1404;-74
2022/06/27 10:00:19;;;;;;;;;;;21.90;69.30;;;;;;5048339;28;1252;-73
2022/06/27 10:02:45;;;;;;;;;;;21.90;69.20;;;;;;5036595;28;1978;-73
2022/06/27 10:05:11;;;;;;;;;;;21.90;69.20;;;;;;5053932;28;1339;-73
2022/06/27 10:07:38;;;;;;;;;;;21.90;69.20;;;;;;5072319;28;1286;-73
2022/06/27 10:10:04;;;;;;;;;;;21.90;69.20;;;;;;5038835;28;1351;-75
2022/06/27 10:12:36;;;;;;;;;;;21.90;69.20;;;;;;5056282;28;1116;-75
2022/06/27 10:15:10;;;;;;;;;;;21.90;69.20;;;;;;5072775;28;1638;-73
2022/06/27 10:17:49;;;;;;;;;;;22.00;69.30;;;;;;5052548;28;1870;-72
2022/06/27 10:20:20;;;;;;;;;;;21.90;69.20;;;;;;5050078;28;1169;-73
2022/06/27 10:22:48;;;;;;;;;;;21.90;69.20;;;;;;5065800;28;1901;-72
2022/06/27 10:25:26;;;;;;;;;;;21.90;69.20;;;;;;5048837;28;1392;-73
2022/06/27 10:28:10;;;;;;;;;;;21.90;69.20;;;;;;5073714;28;1280;-72
2022/06/27 10:30:35;;;;;;;;;;;22.00;69.40;;;;;;5073648;28;1118;-72
2022/06/27 10:33:01;;;;;;;;;;;22.00;69.40;;;;;;5060768;28;1059;-72
2022/06/27 10:35:26;;;;;;;;;;;22.00;69.30;;;;;;5053489;28;1284;-73
2022/06/27 10:37:52;;;;;;;;;;;22.00;69.30;;;;;;5041862;28;1417;-72
2022/06/27 10:40:20;;;;;;;;;;;21.90;69.20;;;;;;5073471;28;1554;-73
2022/06/27 10:42:46;;;;;;;;;;;22.00;69.30;;;;;;5073343;28;1965;-72
2022/06/27 10:45:20;;;;;;;;;;;21.90;69.20;;;;;;5073276;28;1285;-73
2022/06/27 10:47:46;;;;;;;;;;;21.90;69.20;;;;;;5055293;28;1331;-73
2022/06/27 10:50:12;;;;;;;;;;;22.00;69.30;;;;;;5055883;28;1091;-73
2022/06/27 10:52:37;;;;;;;;;;;22.00;69.30;;;;;;5042237;28;1107;-72
2022/06/27 10:55:19;;;;;;;;;;;21.90;69.20;;;;;;5044019;28;1123;-73
2022/06/27 10:57:44;;;;;;;;;;;22.00;69.30;;;;;;5048523;28;1294;-73
2022/06/27 11:00:10;;;;;;;;;;;21.90;69.20;;;;;;5053509;28;803;-74
2022/06/27 11:02:36;;;;;;;;;;;22.00;69.30;;;;;;5066839;28;1910;-74
2022/06/27 11:05:01;;;;;;;;;;;22.00;69.40;;;;;;5048139;28;782;-75
2022/06/27 11:07:27;;;;;;;;;;;22.00;69.30;;;;;;5066910;28;1207;-74
2022/06/27 11:09:52;;;;;;;;;;;22.00;69.30;;;;;;5037862;28;973;-74
2022/06/27 11:12:19;;;;;;;;;;;21.90;69.20;;;;;;5059489;28;1111;-74
2022/06/27 11:14:47;;;;;;;;;;;22.00;69.30;;;;;;5041594;28;1123;-75
2022/06/27 11:17:28;;;;;;;;;;;22.00;69.30;;;;;;5066009;28;1328;-75
2022/06/27 11:20:12;;;;;;;;;;;22.00;69.30;;;;;;5054595;28;1043;-75
2022/06/27 11:22:41;;;;;;;;;;;22.00;69.20;;;;;;5044542;28;1963;-75
2022/06/27 11:25:07;;;;;;;;;;;22.00;69.20;;;;;;5068671;28;1253;-75
2022/06/27 11:27:52;;;;;;;;;;;22.00;69.30;;;;;;5061877;28;1355;-74
2022/06/27 11:33:11;;;;;;;;;;;22.00;69.20;;;;;;5072957;28;1304;-74
2022/06/27 11:35:37;;;;;;;;;;;22.00;69.30;;;;;;5054519;28;1138;-75
2022/06/27 11:38:05;;;;;;;;;;;22.00;69.30;;;;;;5041177;28;1375;-75
2022/06/27 11:40:30;;;;;;;;;;;22.00;69.30;;;;;;5054789;28;1627;-75
2022/06/27 11:42:56;;;;;;;;;;;22.00;69.20;;;;;;5041329;28;1969;-74
2022/06/27 11:45:21;;;;;;;;;;;22.00;69.30;;;;;;5043564;28;1130;-74
2022/06/27 11:47:47;;;;;;;;;;;21.90;69.20;;;;;;5064323;28;1353;-74
2022/06/27 11:50:16;;;;;;;;;;;22.00;69.30;;;;;;5045903;28;1351;-74
2022/06/27 11:52:43;;;;;;;;;;;22.00;69.30;;;;;;5052686;28;1216;-75
2022/06/27 11:55:15;;;;;;;;;;;22.00;69.30;;;;;;5049807;28;1141;-74
2022/06/27 11:57:48;;;;;;;;;;;22.00;69.30;;;;;;5067366;28;1277;-73
2022/06/27 12:00:17;;;;;;;;;;;22.00;69.30;;;;;;5050158;28;1169;-74
2022/06/27 12:02:44;;;;;;;;;;;22.00;69.30;;;;;;5051013;28;1973;-75
2022/06/27 12:05:16;;;;;;;;;;;22.00;69.20;;;;;;5070414;28;1417;-73
2022/06/27 12:07:51;;;;;;;;;;;22.00;69.30;;;;;;5053029;28;1322;-73
2022/06/27 12:10:17;;;;;;;;;;;22.00;69.30;;;;;;5053815;28;1306;-75
2022/06/27 12:12:45;;;;;;;;;;;22.00;69.20;;;;;;5044455;28;1320;-74
2022/06/27 12:15:20;;;;;;;;;;;22.00;70.00;;;;;;5046657;28;1144;-75
2022/06/27 12:17:46;;;;;;;;;;;22.00;69.30;;;;;;5049908;28;1320;-74
2022/06/27 12:20:11;;;;;;;;;;;22.00;69.30;;;;;;5063830;28;1000;-73
2022/06/27 12:22:37;;;;;;;;;;;22.00;69.20;;;;;;5038079;28;1906;-75
2022/06/27 12:25:02;;;;;;;;;;;22.00;69.20;;;;;;5069479;28;1239;-74
2022/06/27 12:27:28;;;;;;;;;;;22.00;69.30;;;;;;5054039;28;1392;-73
2022/06/27 12:29:55;;;;;;;;;;;22.00;69.30;;;;;;5073753;28;1239;-73
2022/06/27 12:32:20;;;;;;;;;;;22.00;69.20;;;;;;5068191;28;1536;-74
2022/06/27 12:34:46;;;;;;;;;;;22.00;69.30;;;;;;5069551;28;1314;-73
2022/06/27 12:37:11;;;;;;;;;;;22.00;69.30;;;;;;5069838;28;1287;-73
2022/06/27 12:39:37;;;;;;;;;;;22.00;69.20;;;;;;5060239;28;1359;-72
2022/06/27 12:42:03;;;;;;;;;;;22.00;69.30;;;;;;5076346;28;1930;-72
2022/06/27 12:44:29;;;;;;;;;;;22.00;69.20;;;;;;5076794;28;1344;-71
2022/06/27 12:46:55;;;;;;;;;;;22.00;69.20;;;;;;5078575;28;1242;-72
2022/06/27 12:49:20;;;;;;;;;;;22.00;69.30;;;;;;5060410;28;1283;-72
2022/06/27 12:51:47;;;;;;;;;;;22.00;69.20;;;;;;5078573;28;1251;-71
2022/06/27 12:54:13;;;;;;;;;;;22.00;69.20;;;;;;5060108;28;1335;-71
2022/06/27 12:56:38;;;;;;;;;;;22.00;69.20;;;;;;5078256;28;1255;-71
2022/06/27 12:59:04;;;;;;;;;;;22.00;69.30;;;;;;5115616;22;1945;-68
2022/06/27 13:01:29;;;;;;;;;;;22.00;69.30;;;;;;5098583;28;933;-69
2022/06/27 13:03:55;;;;;;;;;;;22.00;69.20;;;;;;5091107;28;1913;-67
2022/06/27 13:06:20;;;;;;;;;;;22.00;69.20;;;;;;5068176;28;1358;-68
2022/06/27 13:08:46;;;;;;;;;;;22.00;69.20;;;;;;5073013;28;1376;-68
2022/06/27 13:11:11;;;;;;;;;;;22.00;69.30;;;;;;5075054;28;1271;-69
2022/06/27 13:13:38;;;;;;;;;;;22.00;69.30;;;;;;5075556;28;1341;-69
2022/06/27 13:16:04;;;;;;;;;;;22.00;69.20;;;;;;5075490;28;838;-69
2022/06/27 13:18:29;;;;;;;;;;;22.00;69.20;;;;;;5072079;28;1283;-69
2022/06/27 13:20:54;;;;;;;;;;;22.00;69.20;;;;;;5065802;28;1262;-69
2022/06/27 13:23:20;;;;;;;;;;;22.00;69.20;;;;;;5074828;28;1906;-69
2022/06/27 13:25:46;;;;;;;;;;;22.00;69.30;;;;;;5066754;28;1115;-68
2022/06/27 13:28:11;;;;;;;;;;;22.00;69.20;;;;;;5070480;28;1313;-68
2022/06/27 13:30:37;;;;;;;;;;;22.00;69.30;;;;;;5075278;28;953;-68
2022/06/27 13:33:02;;;;;;;;;;;22.00;69.20;;;;;;5074829;28;1309;-69
2022/06/27 13:35:28;;;;;;;;;;;22.00;69.20;;;;;;5074821;28;1043;-68
2022/06/27 13:37:53;;;;;;;;;;;22.00;69.20;;;;;;5088421;28;1263;-68
2022/06/27 13:40:19;;;;;;;;;;;22.00;69.20;;;;;;5074728;28;1586;-68
2022/06/27 13:42:44;;;;;;;;;;;22.00;69.30;;;;;;5078061;28;1910;-69
2022/06/27 13:45:10;;;;;;;;;;;22.00;69.30;;;;;;5080009;28;1163;-68
2022/06/27 13:47:35;;;;;;;;;;;22.00;69.20;;;;;;5065357;28;1283;-67
2022/06/27 13:50:03;;;;;;;;;;;22.00;69.20;;;;;;5074379;28;1223;-68
2022/06/27 13:52:30;;;;;;;;;;;22.00;69.30;;;;;;5074163;28;1224;-67
2022/06/27 13:54:55;;;;;;;;;;;22.00;69.30;;;;;;5064958;28;1333;-67
2022/06/27 13:57:21;;;;;;;;;;;22.00;69.30;;;;;;5075532;28;1377;-68
2022/06/27 13:59:46;;;;;;;;;;;22.00;69.30;;;;;;5076456;28;1259;-68
2022/06/27 14:02:12;;;;;;;;;;;22.00;69.30;;;;;;5073905;28;1918;-68
2022/06/27 14:04:37;;;;;;;;;;;22.00;69.30;;;;;;5073988;28;1226;-69
2022/06/27 14:09:47;;;;;;;;;;;22.00;69.20;;;;;;5072856;28;1097;-67
2022/06/27 14:12:13;;;;;;;;;;;22.00;69.30;;;;;;5074015;28;1138;-68
2022/06/27 14:14:38;;;;;;;;;;;22.00;69.30;;;;;;5072756;28;1231;-70
2022/06/27 14:17:03;;;;;;;;;;;22.00;69.20;;;;;;5073542;28;1399;-69
2022/06/27 14:19:29;;;;;;;;;;;22.00;69.30;;;;;;5073121;28;1307;-69
2022/06/27 14:21:54;;;;;;;;;;;22.00;69.30;;;;;;5073265;28;1967;-68
2022/06/27 14:24:20;;;;;;;;;;;22.00;69.30;;;;;;5073310;28;1187;-69
2022/06/27 14:26:45;;;;;;;;;;;22.00;69.30;;;;;;5073534;28;1382;-67
2022/06/27 14:29:11;;;;;;;;;;;22.00;69.20;;;;;;5073383;28;1286;-68
2022/06/27 14:31:36;;;;;;;;;;;22.00;69.30;;;;;;5073632;28;1300;-69
2022/06/27 14:34:02;;;;;;;;;;;22.00;69.30;;;;;;5071785;28;1806;-68
2022/06/27 14:36:27;;;;;;;;;;;22.00;69.30;;;;;;5047356;28;2332;-68